Time;durP1;ratioP1;P1;durP2;ratioP2;P2;SDS_P1;SDS_P2;PMS_P1;PMS_P2;Temp;Humidity;BMP_temperature;BMP_pressure;BME280_temperature;BME280_humidity;BME280_pressure;Samples;Min_cycle;Max_cycle;Signal;HPM_P1;HPM_P2
2022/03/20 00:00:24;;;;;;;7.53;5.35;;;22.60;39.70;;;;;;5004508;28;20036;-64
2022/03/20 00:02:49;;;;;;;7.20;5.00;;;22.50;39.70;;;;;;5001333;28;20119;-66
2022/03/20 00:05:15;;;;;;;6.38;4.80;;;22.50;39.70;;;;;;5006863;28;20045;-63
2022/03/20 00:07:41;;;;;;;7.78;4.70;;;22.50;39.70;;;;;;5007047;28;20026;-62
2022/03/20 00:10:08;;;;;;;7.95;5.53;;;22.40;39.70;;;;;;5004228;28;20037;-66
2022/03/20 00:12:37;;;;;;;7.72;5.22;;;22.40;39.70;;;;;;5004119;28;20061;-66
2022/03/20 00:15:04;;;;;;;7.43;5.18;;;22.40;39.70;;;;;;5003069;28;20413;-66
2022/03/20 00:17:30;;;;;;;7.55;5.40;;;22.40;39.70;;;;;;5003264;28;20405;-62
2022/03/20 00:19:56;;;;;;;7.82;5.10;;;22.40;39.70;;;;;;5005401;28;20034;-63
2022/03/20 00:22:22;;;;;;;7.43;4.90;;;22.30;39.60;;;;;;5004130;28;20057;-66
2022/03/20 00:24:48;;;;;;;6.13;4.55;;;22.30;39.60;;;;;;5002963;28;20391;-65
2022/03/20 00:27:15;;;;;;;6.63;5.10;;;22.30;39.60;;;;;;5002398;28;20065;-63
2022/03/20 00:29:40;;;;;;;6.70;4.78;;;22.30;39.60;;;;;;5004930;28;20037;-66
2022/03/20 00:32:08;;;;;;;6.57;5.00;;;22.30;39.60;;;;;;5002106;28;20104;-63
2022/03/20 00:34:35;;;;;;;5.53;4.43;;;22.20;39.60;;;;;;5004215;28;20163;-64
2022/03/20 00:37:01;;;;;;;6.45;4.55;;;22.20;39.60;;;;;;5000080;28;20085;-65
2022/03/20 00:39:27;;;;;;;7.07;4.88;;;22.20;39.60;;;;;;5003966;28;20423;-62
2022/03/20 00:41:53;;;;;;;7.00;4.78;;;22.20;39.60;;;;;;4997994;28;20061;-61
2022/03/20 00:44:18;;;;;;;6.72;4.80;;;22.20;39.60;;;;;;5002052;28;20041;-66
2022/03/20 00:46:44;;;;;;;6.57;4.47;;;22.10;39.60;;;;;;5001588;28;20609;-64
2022/03/20 00:49:10;;;;;;;5.80;4.38;;;22.10;39.60;;;;;;5002122;28;20044;-65
2022/03/20 00:51:36;;;;;;;6.70;4.63;;;22.10;39.60;;;;;;4996493;28;20064;-66
2022/03/20 00:54:02;;;;;;;6.63;4.85;;;22.10;39.60;;;;;;5000040;28;20048;-62
2022/03/20 00:56:28;;;;;;;6.32;4.20;;;22.10;39.60;;;;;;5001890;28;20126;-63
2022/03/20 00:58:53;;;;;;;5.78;4.22;;;22.10;39.60;;;;;;5004820;28;20053;-66
2022/03/20 01:01:19;;;;;;;5.68;4.20;;;22.10;39.60;;;;;;5000778;28;21765;-66
2022/03/20 01:03:45;;;;;;;5.68;4.07;;;22.10;39.60;;;;;;4996575;28;20045;-66
2022/03/20 01:06:11;;;;;;;5.35;4.10;;;22.00;39.60;;;;;;5004794;28;20105;-66
2022/03/20 01:08:40;;;;;;;7.18;4.47;;;22.00;39.60;;;;;;5002725;28;20588;-66
2022/03/20 01:11:07;;;;;;;5.88;4.13;;;22.00;39.60;;;;;;5000771;28;20514;-66
2022/03/20 01:13:33;;;;;;;6.93;4.55;;;22.00;39.60;;;;;;4999292;28;20030;-66
2022/03/20 01:16:00;;;;;;;5.88;4.30;;;22.00;39.60;;;;;;5002830;28;20088;-66
2022/03/20 01:18:25;;;;;;;6.03;4.53;;;22.00;39.60;;;;;;5001512;28;20082;-62
2022/03/20 01:20:53;;;;;;;5.47;4.10;;;22.00;39.60;;;;;;5001347;28;20057;-66
2022/03/20 01:23:21;;;;;;;5.55;4.20;;;21.90;39.60;;;;;;5001301;28;20057;-65
2022/03/20 01:25:47;;;;;;;5.80;4.10;;;21.90;39.60;;;;;;4998572;28;20048;-62
2022/03/20 01:28:14;;;;;;;5.45;3.92;;;21.90;39.50;;;;;;5001876;28;20021;-66
2022/03/20 01:30:40;;;;;;;6.20;4.22;;;21.90;39.60;;;;;;5004250;28;20147;-66
2022/03/20 01:33:05;;;;;;;5.53;4.00;;;21.90;39.60;;;;;;5002852;28;20494;-66
2022/03/20 01:35:31;;;;;;;5.95;3.70;;;21.90;39.60;;;;;;4999802;28;20083;-66
2022/03/20 01:37:57;;;;;;;5.75;4.10;;;21.90;39.60;;;;;;5000994;28;20046;-66
2022/03/20 01:40:25;;;;;;;4.75;3.70;;;21.80;39.60;;;;;;4998813;28;20482;-62
2022/03/20 01:42:51;;;;;;;6.18;3.75;;;21.90;39.60;;;;;;5000572;28;20038;-63
2022/03/20 01:45:21;;;;;;;6.18;3.75;;;21.80;39.50;;;;;;5001436;28;20065;-66
2022/03/20 01:47:49;;;;;;;5.13;3.50;;;21.80;39.60;;;;;;5001892;28;20729;-64
2022/03/20 01:50:16;;;;;;;5.25;3.97;;;21.80;39.60;;;;;;5015720;28;20081;-64
2022/03/20 01:52:45;;;;;;;5.22;3.75;;;21.80;39.50;;;;;;4999851;28;20030;-66
2022/03/20 01:55:11;;;;;;;5.15;3.85;;;21.80;39.60;;;;;;4999969;28;20029;-64
2022/03/20 01:57:39;;;;;;;6.43;3.88;;;21.80;39.60;;;;;;5001996;28;20031;-65
2022/03/20 02:00:07;;;;;;;5.05;3.60;;;21.80;39.60;;;;;;5002793;28;20030;-66
2022/03/20 02:02:33;;;;;;;4.85;3.47;;;21.70;39.60;;;;;;5004068;28;20026;-63
2022/03/20 02:04:59;;;;;;;5.10;3.70;;;21.70;39.60;;;;;;5001177;28;20115;-64
2022/03/20 02:07:25;;;;;;;5.10;3.60;;;21.70;39.70;;;;;;5000341;28;20030;-64
2022/03/20 02:09:51;;;;;;;5.85;4.18;;;21.70;39.60;;;;;;5002284;28;20019;-66
2022/03/20 02:12:17;;;;;;;5.88;3.78;;;21.70;39.70;;;;;;5002279;28;20375;-62
2022/03/20 02:14:43;;;;;;;4.90;3.67;;;21.70;39.60;;;;;;4999626;28;20037;-64
2022/03/20 02:17:12;;;;;;;5.40;3.72;;;21.70;39.60;;;;;;5000947;28;20026;-66
2022/03/20 02:19:39;;;;;;;4.85;3.47;;;21.70;39.60;;;;;;5007451;28;20021;-66
2022/03/20 02:22:05;;;;;;;5.07;3.67;;;21.70;39.60;;;;;;5003898;28;20073;-64
2022/03/20 02:24:41;;;;;;;5.05;3.80;;;21.60;39.60;;;;;;5003090;28;20125;-66
2022/03/20 02:27:09;;;;;;;4.80;3.50;;;21.60;39.70;;;;;;5001488;28;20037;-65
2022/03/20 02:29:36;;;;;;;4.60;3.45;;;21.60;39.60;;;;;;5005419;28;20380;-66
2022/03/20 02:32:04;;;;;;;5.20;3.67;;;21.60;39.60;;;;;;5006450;28;20046;-66
2022/03/20 02:34:31;;;;;;;4.63;3.50;;;21.60;39.60;;;;;;5005245;28;20463;-66
2022/03/20 02:36:58;;;;;;;4.75;3.40;;;21.60;39.70;;;;;;5004193;28;20306;-66
2022/03/20 02:39:24;;;;;;;4.75;3.30;;;21.60;39.70;;;;;;4996357;28;20050;-64
2022/03/20 02:41:50;;;;;;;4.43;3.30;;;21.60;39.70;;;;;;5003950;28;20018;-64
2022/03/20 02:44:16;;;;;;;4.57;3.30;;;21.50;39.70;;;;;;5000943;28;20038;-66
2022/03/20 02:46:42;;;;;;;4.78;3.50;;;21.50;39.70;;;;;;5003557;28;20128;-66
2022/03/20 02:49:09;;;;;;;4.53;3.33;;;21.50;39.70;;;;;;5004654;28;20095;-61
2022/03/20 02:51:38;;;;;;;4.07;3.03;;;21.50;39.70;;;;;;5004031;28;20037;-62
2022/03/20 02:54:03;;;;;;;4.90;3.08;;;21.50;39.70;;;;;;5002039;28;20034;-66
2022/03/20 02:56:29;;;;;;;5.07;3.42;;;21.50;39.80;;;;;;5003732;28;20024;-66
2022/03/20 02:58:55;;;;;;;4.90;3.30;;;21.50;39.80;;;;;;5004666;28;20025;-66
2022/03/20 03:01:21;;;;;;;4.70;3.30;;;21.50;39.80;;;;;;5003293;28;20145;-64
2022/03/20 03:03:47;;;;;;;4.43;3.20;;;21.50;39.80;;;;;;5002624;28;20030;-63
2022/03/20 03:06:13;;;;;;;5.00;3.60;;;21.50;39.90;;;;;;5003178;28;20033;-65
2022/03/20 03:11:23;;;;;;;5.80;3.72;;;21.40;39.80;;;;;;5004591;28;20037;-66
2022/03/20 03:13:49;;;;;;;4.63;3.35;;;21.40;39.80;;;;;;5004770;28;20034;-64
2022/03/20 03:16:16;;;;;;;4.00;2.80;;;21.40;39.80;;;;;;4999703;28;20038;-66
2022/03/20 03:18:44;;;;;;;4.50;3.10;;;21.40;39.80;;;;;;5004737;28;20029;-64
2022/03/20 03:21:12;;;;;;;4.43;3.20;;;21.40;39.90;;;;;;5004705;28;20030;-62
2022/03/20 03:23:37;;;;;;;4.10;3.00;;;21.40;39.90;;;;;;5002263;28;20124;-65
2022/03/20 03:26:06;;;;;;;3.83;2.70;;;21.30;39.90;;;;;;5000096;28;20153;-66
2022/03/20 03:28:36;;;;;;;4.45;3.30;;;21.30;39.90;;;;;;5003723;28;20058;-64
2022/03/20 03:31:12;;;;;;;4.53;3.00;;;21.30;39.90;;;;;;5001640;28;20033;-61
2022/03/20 03:36:25;;;;;;;4.25;2.97;;;21.30;39.90;;;;;;5003016;28;20029;-66
2022/03/20 03:38:51;;;;;;;3.80;2.72;;;21.30;39.90;;;;;;5002216;28;20204;-66
2022/03/20 03:41:16;;;;;;;4.57;3.10;;;21.30;39.90;;;;;;5006006;28;20457;-63
2022/03/20 03:43:43;;;;;;;4.22;3.10;;;21.30;40.00;;;;;;5003978;28;20552;-66
2022/03/20 03:46:09;;;;;;;3.88;2.95;;;21.20;39.90;;;;;;5002042;28;20132;-66
2022/03/20 03:48:34;;;;;;;4.25;3.00;;;21.30;40.00;;;;;;5003501;28;20113;-66
2022/03/20 03:51:00;;;;;;;3.95;3.00;;;21.20;40.00;;;;;;5003846;28;20065;-64
2022/03/20 03:53:25;;;;;;;4.13;2.78;;;21.20;40.00;;;;;;5001619;28;20034;-63
2022/03/20 03:55:51;;;;;;;3.97;2.83;;;21.20;40.00;;;;;;5002089;28;20030;-65
2022/03/20 03:58:17;;;;;;;4.05;2.80;;;21.20;40.00;;;;;;5001153;28;20030;-66
2022/03/20 04:00:43;;;;;;;3.65;2.75;;;21.20;40.00;;;;;;5004483;28;20205;-62
2022/03/20 04:03:09;;;;;;;4.07;2.92;;;21.20;40.00;;;;;;5017868;28;20312;-66
2022/03/20 04:05:35;;;;;;;3.85;2.63;;;21.20;40.00;;;;;;5002680;28;20022;-64
2022/03/20 04:08:01;;;;;;;3.60;2.60;;;21.20;40.00;;;;;;5002267;28;20044;-66
2022/03/20 04:10:27;;;;;;;4.00;2.83;;;21.20;40.10;;;;;;5002196;28;20411;-66
2022/03/20 04:12:53;;;;;;;3.97;2.95;;;21.20;40.10;;;;;;5000157;28;20042;-64
2022/03/20 04:15:24;;;;;;;3.50;2.70;;;21.20;40.10;;;;;;5003701;28;20056;-62
2022/03/20 04:17:51;;;;;;;4.00;3.00;;;21.10;40.10;;;;;;5003982;28;20089;-66
2022/03/20 04:20:16;;;;;;;4.05;2.90;;;21.10;40.10;;;;;;5003216;28;20022;-64
2022/03/20 04:23:42;;;;;;;3.38;2.55;;;21.10;40.60;;;;;;5001710;28;20113;-62
2022/03/20 04:25:29;;;;;;;4.05;2.67;;;21.10;40.10;;;;;;5001153;28;20700;-64
2022/03/20 04:27:56;;;;;;;4.18;3.00;;;21.10;40.20;;;;;;5014371;28;20033;-64
2022/03/20 04:30:25;;;;;;;3.72;2.63;;;21.10;40.20;;;;;;5003853;28;20021;-66
2022/03/20 04:32:53;;;;;;;3.50;2.60;;;21.10;40.20;;;;;;5000758;28;20080;-65
2022/03/20 04:35:23;;;;;;;3.95;2.88;;;21.10;40.20;;;;;;4998883;28;20621;-64
2022/03/20 04:37:52;;;;;;;4.03;2.95;;;21.00;40.10;;;;;;5001796;28;20022;-64
2022/03/20 04:40:19;;;;;;;4.15;2.63;;;21.10;40.50;;;;;;5000832;28;20028;-67
2022/03/20 04:42:44;;;;;;;3.95;2.72;;;21.10;40.20;;;;;;4998309;28;20072;-61
2022/03/20 04:45:11;;;;;;;3.70;2.65;;;21.00;40.20;;;;;;5001910;28;20455;-64
2022/03/20 04:58:35;;;;;;;3.60;2.63;;;21.00;40.20;;;;;;5003962;28;20176;-64
2022/03/20 05:01:01;;;;;;;4.22;2.80;;;21.00;40.30;;;;;;5002123;28;20079;-63
2022/03/20 05:03:29;;;;;;;4.03;2.50;;;21.00;40.20;;;;;;5014844;28;20284;-65
2022/03/20 05:05:55;;;;;;;3.40;2.60;;;21.00;40.20;;;;;;5000987;28;20038;-64
2022/03/20 05:08:20;;;;;;;3.95;2.83;;;21.00;40.30;;;;;;5000726;28;20806;-64
2022/03/20 05:13:30;;;;;;;3.42;2.55;;;21.00;40.20;;;;;;5000759;28;20108;-66
2022/03/20 05:15:56;;;;;;;3.70;2.70;;;21.00;40.30;;;;;;5002018;28;20510;-64
2022/03/20 05:18:22;;;;;;;3.53;2.50;;;21.00;40.30;;;;;;5000704;28;20026;-64
2022/03/20 05:20:51;;;;;;;3.45;2.55;;;21.00;40.30;;;;;;5002783;28;20486;-61
2022/03/20 05:23:17;;;;;;;3.67;2.67;;;21.00;40.30;;;;;;5000774;28;20213;-64
2022/03/20 05:25:42;;;;;;;4.00;2.80;;;20.90;40.20;;;;;;5005026;28;20131;-66
2022/03/20 05:28:08;;;;;;;3.78;2.83;;;21.00;40.30;;;;;;4998793;28;20499;-64
2022/03/20 05:30:34;;;;;;;4.30;2.97;;;20.90;40.20;;;;;;5005217;28;20096;-66
2022/03/20 05:33:00;;;;;;;3.97;2.80;;;20.90;40.20;;;;;;4999299;28;20046;-62
2022/03/20 05:35:26;;;;;;;3.70;2.55;;;20.90;40.20;;;;;;5001460;28;20101;-64
2022/03/20 05:37:52;;;;;;;3.75;2.60;;;21.00;40.20;;;;;;5001682;28;20626;-66
2022/03/20 05:40:18;;;;;;;3.70;2.65;;;21.00;40.70;;;;;;5000073;28;20553;-62
2022/03/20 05:42:43;;;;;;;4.18;2.78;;;21.00;40.20;;;;;;5002172;28;20037;-66
2022/03/20 05:45:10;;;;;;;3.30;2.42;;;21.00;40.20;;;;;;4998909;28;20022;-64
2022/03/20 05:47:36;;;;;;;3.83;2.85;;;21.00;40.20;;;;;;4999045;28;20085;-66
2022/03/20 05:50:03;;;;;;;3.42;2.33;;;21.00;40.20;;;;;;4999983;28;20029;-64
2022/03/20 05:52:32;;;;;;;3.50;2.58;;;21.00;40.20;;;;;;4998410;28;20029;-62
2022/03/20 05:54:58;;;;;;;3.55;2.92;;;20.90;40.20;;;;;;4999976;28;20431;-66
2022/03/20 06:00:16;;;;;;;3.30;2.60;;;20.90;40.20;;;;;;5005695;28;20059;-66
2022/03/20 06:02:43;;;;;;;3.30;2.50;;;21.00;40.20;;;;;;5017509;28;20427;-65
2022/03/20 06:05:09;;;;;;;3.67;2.42;;;20.90;40.20;;;;;;5002507;28;20481;-64
2022/03/20 06:07:43;;;;;;;3.85;2.75;;;20.90;40.20;;;;;;5003571;28;20117;-62
2022/03/20 06:10:16;;;;;;;3.75;2.50;;;20.90;40.70;;;;;;5004994;28;20224;-66
2022/03/20 06:12:42;;;;;;;3.25;2.45;;;20.90;40.20;;;;;;5003778;28;20112;-66
2022/03/20 06:15:08;;;;;;;3.25;2.60;;;20.90;40.20;;;;;;5001785;28;20061;-64
2022/03/20 06:17:38;;;;;;;3.65;2.78;;;20.90;40.20;;;;;;5006597;28;20033;-63
2022/03/20 06:20:06;;;;;;;3.63;2.50;;;20.90;40.30;;;;;;5003910;28;20385;-64
2022/03/20 06:22:33;;;;;;;3.42;2.40;;;20.90;40.20;;;;;;5005278;28;20034;-62
2022/03/20 06:24:59;;;;;;;4.07;2.55;;;20.90;40.20;;;;;;5001400;28;20088;-62
2022/03/20 06:27:24;;;;;;;3.55;2.40;;;20.90;40.40;;;;;;5005181;28;20045;-66
2022/03/20 06:29:50;;;;;;;3.40;2.50;;;20.90;40.20;;;;;;5003472;28;20022;-62
2022/03/20 06:32:16;;;;;;;3.55;2.58;;;20.90;40.20;;;;;;5005920;28;20115;-62
2022/03/20 06:34:42;;;;;;;3.65;2.58;;;20.90;40.30;;;;;;5000771;28;20083;-62
2022/03/20 06:37:08;;;;;;;3.10;2.28;;;20.90;40.30;;;;;;5005771;28;20105;-64
2022/03/20 06:39:34;;;;;;;3.50;2.80;;;20.90;40.30;;;;;;5002357;28;20084;-66
2022/03/20 06:42:00;;;;;;;3.50;2.80;;;20.90;40.30;;;;;;4999820;28;20053;-66
2022/03/20 06:44:25;;;;;;;3.35;2.20;;;20.90;40.30;;;;;;4999415;28;20034;-66
2022/03/20 06:46:51;;;;;;;3.60;2.50;;;20.90;40.30;;;;;;4994921;28;20109;-66
2022/03/20 06:49:17;;;;;;;3.38;2.40;;;20.80;40.30;;;;;;4997643;28;20394;-61
2022/03/20 06:51:42;;;;;;;2.85;2.15;;;20.80;40.30;;;;;;5003500;28;20034;-66
2022/03/20 06:54:08;;;;;;;3.03;2.38;;;20.80;40.30;;;;;;4999448;28;20463;-66
2022/03/20 06:56:34;;;;;;;3.15;2.13;;;20.80;40.30;;;;;;5000284;28;20026;-64
2022/03/20 06:58:59;;;;;;;2.92;2.30;;;20.80;40.30;;;;;;5002084;28;20040;-66
2022/03/20 07:01:26;;;;;;;3.58;2.45;;;20.80;40.30;;;;;;5001412;28;20038;-67
2022/03/20 07:03:54;;;;;;;3.30;2.20;;;20.80;40.30;;;;;;4998876;28;20085;-66
2022/03/20 07:06:20;;;;;;;3.60;2.40;;;20.80;40.40;;;;;;4999114;28;20044;-66
2022/03/20 07:08:45;;;;;;;3.30;2.30;;;20.80;40.30;;;;;;4999251;28;20022;-64
2022/03/20 07:11:12;;;;;;;3.47;2.40;;;20.80;40.40;;;;;;4998496;28;20042;-64
2022/03/20 07:13:50;;;;;;;3.10;2.25;;;20.80;40.40;;;;;;4994973;28;20041;-64
2022/03/20 07:16:20;;;;;;;2.88;2.10;;;20.80;40.30;;;;;;4999115;28;20085;-66
2022/03/20 07:18:46;;;;;;;2.92;2.25;;;20.80;40.40;;;;;;5005660;28;20026;-64
2022/03/20 07:21:14;;;;;;;3.22;2.30;;;20.80;40.40;;;;;;5002516;28;20398;-66
2022/03/20 07:23:39;;;;;;;2.83;1.98;;;20.80;40.40;;;;;;4999593;28;20479;-63
2022/03/20 07:31:33;;;;;;;3.65;2.45;;;20.80;40.40;;;;;;5001716;28;20053;-65
2022/03/20 07:33:58;;;;;;;2.67;2.00;;;20.80;40.40;;;;;;4998429;28;20030;-66
2022/03/20 07:36:24;;;;;;;3.72;2.30;;;20.80;40.40;;;;;;5001758;28;20030;-65
2022/03/20 07:38:50;;;;;;;3.42;2.30;;;20.80;40.40;;;;;;5003237;28;20041;-64
2022/03/20 07:41:16;;;;;;;3.13;2.15;;;20.80;41.00;;;;;;5001298;28;20140;-61
2022/03/20 07:43:42;;;;;;;3.70;2.42;;;20.70;40.40;;;;;;4998547;28;20898;-64
2022/03/20 07:46:08;;;;;;;3.40;2.42;;;20.80;40.50;;;;;;5001789;28;20026;-61
2022/03/20 07:48:34;;;;;;;3.08;2.17;;;20.70;40.40;;;;;;4999264;28;20079;-65
2022/03/20 07:51:00;;;;;;;3.40;2.38;;;20.80;41.00;;;;;;5000284;28;20112;-61
2022/03/20 07:53:26;;;;;;;3.75;2.10;;;20.80;40.50;;;;;;5000766;28;20087;-66
2022/03/20 07:55:52;;;;;;;3.65;2.38;;;20.70;40.40;;;;;;4999444;28;20396;-64
2022/03/20 07:58:20;;;;;;;3.15;2.17;;;20.70;40.40;;;;;;5001221;28;20105;-64
2022/03/20 08:00:46;;;;;;;4.68;2.80;;;20.80;40.50;;;;;;5000951;28;20049;-66
2022/03/20 08:03:12;;;;;;;4.10;2.40;;;20.70;40.40;;;;;;5001847;28;20573;-61
2022/03/20 08:05:38;;;;;;;3.80;2.40;;;20.70;40.40;;;;;;4999355;28;20049;-64
2022/03/20 08:08:04;;;;;;;4.18;2.35;;;20.70;40.40;;;;;;5000971;28;20298;-66
2022/03/20 08:10:30;;;;;;;4.57;2.60;;;20.80;40.50;;;;;;4994760;28;20140;-66
2022/03/20 08:12:56;;;;;;;5.90;3.05;;;20.80;40.50;;;;;;5000442;28;20121;-67
2022/03/20 08:15:24;;;;;;;4.43;2.83;;;20.70;40.50;;;;;;4996793;28;20025;-66
2022/03/20 08:17:50;;;;;;;4.22;2.45;;;20.80;40.50;;;;;;4999291;28;20025;-62
2022/03/20 08:20:16;;;;;;;4.53;2.80;;;20.70;40.50;;;;;;4998416;28;20490;-65
2022/03/20 08:22:42;;;;;;;4.63;2.70;;;20.70;40.50;;;;;;5000273;28;20022;-63
2022/03/20 08:25:10;;;;;;;4.00;2.80;;;20.70;40.50;;;;;;4998343;28;20018;-64
2022/03/20 08:27:53;;;;;;;4.32;2.92;;;20.70;40.50;;;;;;4993964;28;20029;-66
2022/03/20 08:30:20;;;;;;;4.85;2.70;;;20.70;40.50;;;;;;4996827;28;20022;-66
2022/03/20 08:32:49;;;;;;;3.90;2.70;;;20.80;40.60;;;;;;5000121;28;20033;-63
2022/03/20 08:35:15;;;;;;;;;;;20.70;40.50;;;;;;5000823;28;20104;-65
2022/03/20 08:37:43;;;;;;;4.25;2.65;;;20.70;40.50;;;;;;4996682;28;19913;-66
2022/03/20 08:40:15;;;;;;;4.75;2.70;;;20.70;40.60;;;;;;5000743;28;20025;-61
2022/03/20 08:42:44;;;;;;;7.60;2.92;;;20.70;40.50;;;;;;5000143;28;20104;-67
2022/03/20 08:45:14;;;;;;;3.90;2.65;;;20.70;40.50;;;;;;4996086;28;20037;-61
2022/03/20 08:47:40;;;;;;;4.65;2.80;;;20.70;40.60;;;;;;4998550;28;20116;-66
2022/03/20 08:50:07;;;;;;;4.97;2.90;;;20.80;41.10;;;;;;5001622;28;20040;-64
2022/03/20 08:52:32;;;;;;;4.38;2.83;;;20.70;40.60;;;;;;5010266;28;20022;-66
2022/03/20 08:54:58;;;;;;;4.10;2.60;;;20.70;40.60;;;;;;4995881;28;20049;-64
2022/03/20 08:57:28;;;;;;;4.28;2.80;;;20.70;40.60;;;;;;4998736;28;20065;-62
2022/03/20 08:59:56;;;;;;;5.28;2.70;;;20.70;40.70;;;;;;4998472;28;20026;-64
2022/03/20 09:02:22;;;;;;;4.82;2.97;;;20.70;40.70;;;;;;4998428;28;20041;-66
2022/03/20 09:04:48;;;;;;;4.57;3.00;;;20.70;40.70;;;;;;4998447;28;20495;-66
2022/03/20 09:07:13;;;;;;;4.85;3.10;;;20.70;40.70;;;;;;5000665;28;20088;-63
2022/03/20 09:09:39;;;;;;;4.50;2.72;;;20.70;40.70;;;;;;4997545;28;20108;-67
2022/03/20 09:12:05;;;;;;;4.38;2.80;;;20.70;40.80;;;;;;4998387;28;20037;-66
2022/03/20 09:14:31;;;;;;;4.65;2.75;;;20.70;40.80;;;;;;4998964;28;20030;-65
2022/03/20 09:19:41;;;;;;;4.30;2.85;;;20.70;40.80;;;;;;4998277;28;20108;-66
2022/03/20 09:22:06;;;;;;;6.03;2.80;;;20.70;40.90;;;;;;5001262;28;20880;-67
2022/03/20 09:24:33;;;;;;;4.25;2.55;;;20.70;40.90;;;;;;4999376;28;20030;-63
2022/03/20 09:27:00;;;;;;;3.90;2.50;;;20.70;41.40;;;;;;4999886;28;20038;-64
2022/03/20 09:29:26;;;;;;;4.60;2.83;;;20.70;40.90;;;;;;5000974;28;20398;-64
2022/03/20 09:31:52;;;;;;;5.53;2.88;;;20.70;41.00;;;;;;4992698;28;20037;-62
2022/03/20 09:34:18;;;;;;;3.92;2.80;;;20.70;41.00;;;;;;4996560;28;20036;-62
2022/03/20 09:36:44;;;;;;;4.55;2.80;;;20.70;41.00;;;;;;4999193;28;20026;-65
2022/03/20 09:39:09;;;;;;;3.80;2.60;;;20.70;41.10;;;;;;4996283;28;20034;-63
2022/03/20 09:41:38;;;;;;;4.15;2.80;;;20.70;41.10;;;;;;4994685;28;20320;-63
2022/03/20 09:44:05;;;;;;;5.05;3.30;;;20.70;41.10;;;;;;4997396;28;20308;-66
2022/03/20 09:46:32;;;;;;;3.85;2.65;;;20.70;41.20;;;;;;4988141;28;20042;-66
2022/03/20 09:49:00;;;;;;;5.03;2.83;;;20.70;41.20;;;;;;4991648;28;20041;-66
2022/03/20 09:51:26;;;;;;;4.13;2.58;;;20.70;41.50;;;;;;4994960;28;20030;-64
2022/03/20 09:53:52;;;;;;;4.22;2.63;;;20.70;41.60;;;;;;4993164;28;20347;-66
2022/03/20 09:56:18;;;;;;;4.88;2.75;;;20.80;41.60;;;;;;4990842;28;20402;-66
2022/03/20 09:58:43;;;;;;;3.80;2.42;;;20.80;41.60;;;;;;4992580;28;20022;-64
2022/03/20 10:01:09;;;;;;;4.30;2.85;;;20.90;41.60;;;;;;4986348;28;20505;-66
2022/03/20 10:03:35;;;;;;;4.15;2.55;;;20.90;41.70;;;;;;4989068;28;20140;-67
2022/03/20 10:06:20;;;;;;;3.47;2.67;;;20.90;41.70;;;;;;4990660;28;20049;-67
2022/03/20 10:08:55;;;;;;;4.03;2.80;;;21.00;41.60;;;;;;4991628;28;20052;-67
2022/03/20 10:11:22;;;;;;;3.78;2.70;;;21.00;41.60;;;;;;4990603;28;20040;-66
2022/03/20 10:14:09;;;;;;;3.88;2.60;;;21.00;41.50;;;;;;4989104;28;20030;-64
2022/03/20 10:16:37;;;;;;;3.92;2.80;;;21.10;41.50;;;;;;4988944;28;20026;-64
2022/03/20 10:19:24;;;;;;;4.18;2.92;;;21.10;41.40;;;;;;4991502;28;20064;-67
2022/03/20 10:22:07;;;;;;;5.72;2.85;;;21.10;41.40;;;;;;4992406;28;20387;-68
2022/03/20 10:24:46;;;;;;;3.90;2.80;;;21.20;41.50;;;;;;4991325;28;20029;-68
2022/03/20 10:27:13;;;;;;;4.20;2.65;;;21.20;41.50;;;;;;4988078;28;20057;-67
2022/03/20 10:29:57;;;;;;;5.95;2.63;;;21.20;41.40;;;;;;4994417;28;20033;-65
2022/03/20 10:32:24;;;;;;;4.93;2.78;;;21.30;41.50;;;;;;4988045;28;20037;-67
2022/03/20 10:34:58;;;;;;;4.00;2.63;;;21.30;42.00;;;;;;4991444;28;20299;-62
2022/03/20 10:37:46;;;;;;;4.45;2.65;;;21.40;41.50;;;;;;4990697;28;20546;-66
2022/03/20 10:40:15;;;;;;;4.03;2.60;;;21.40;41.60;;;;;;4993039;28;20129;-65
2022/03/20 10:43:03;;;;;;;4.45;2.85;;;21.40;41.50;;;;;;4995887;28;20172;-67
2022/03/20 10:45:29;;;;;;;4.47;2.83;;;21.50;41.50;;;;;;4990814;28;20089;-65
2022/03/20 10:48:01;;;;;;;4.13;2.78;;;21.50;41.50;;;;;;4994451;28;20382;-64
2022/03/20 10:50:27;;;;;;;4.63;2.85;;;21.60;41.60;;;;;;4996497;28;20030;-67
2022/03/20 10:53:08;;;;;;;4.97;2.80;;;21.60;41.60;;;;;;4994091;28;20741;-66
2022/03/20 10:55:34;;;;;;;6.13;2.80;;;21.60;41.60;;;;;;4993664;28;20512;-63
2022/03/20 10:58:17;;;;;;;3.47;2.40;;;21.70;41.80;;;;;;4993964;28;20045;-67
2022/03/20 11:00:46;;;;;;;3.38;2.60;;;21.70;41.80;;;;;;4994713;28;20188;-67
2022/03/20 11:03:19;;;;;;;3.70;2.50;;;21.70;41.80;;;;;;4994752;28;20149;-64
2022/03/20 11:05:45;;;;;;;4.35;2.60;;;21.70;42.00;;;;;;4998599;28;20096;-64
2022/03/20 11:08:11;;;;;;;4.50;2.95;;;21.80;42.20;;;;;;5002387;28;20025;-64
2022/03/20 11:10:37;;;;;;;5.78;2.95;;;21.80;42.30;;;;;;5002075;28;20034;-62
2022/03/20 11:13:05;;;;;;;4.60;3.15;;;21.90;42.50;;;;;;4998843;28;20029;-65
2022/03/20 11:15:33;;;;;;;4.38;3.20;;;21.90;42.30;;;;;;4996912;28;20026;-64
2022/03/20 11:17:59;;;;;;;4.75;3.30;;;21.90;42.20;;;;;;5004146;28;20045;-66
2022/03/20 11:20:29;;;;;;;5.18;3.20;;;21.90;42.20;;;;;;5000608;28;20490;-63
2022/03/20 11:22:55;;;;;;;5.25;3.00;;;22.00;42.30;;;;;;4994220;28;20449;-67
2022/03/20 11:25:26;;;;;;;4.53;3.33;;;22.00;42.40;;;;;;5010677;28;20030;-69
2022/03/20 11:28:01;;;;;;;4.82;2.72;;;22.00;42.30;;;;;;4999442;28;20030;-65
2022/03/20 11:30:28;;;;;;;4.60;3.13;;;22.00;42.30;;;;;;5012326;28;20474;-67
2022/03/20 11:32:57;;;;;;;3.80;2.60;;;22.10;42.30;;;;;;4997612;28;20030;-66
2022/03/20 11:35:33;;;;;;;4.03;2.88;;;22.10;42.30;;;;;;4995539;28;20018;-65
2022/03/20 11:38:22;;;;;;;3.80;2.50;;;22.10;42.30;;;;;;4996176;28;20494;-64
2022/03/20 11:41:08;;;;;;;;;;;22.10;42.20;;;;;;4996516;28;20057;-66
2022/03/20 11:43:36;;;;;;;4.07;2.50;;;22.20;42.30;;;;;;4994908;28;19918;-68
2022/03/20 11:46:30;;;;;;;4.20;2.80;;;22.20;42.20;;;;;;4994453;28;20121;-65
2022/03/20 11:49:17;;;;;;;3.55;2.45;;;22.20;42.20;;;;;;4993866;28;20037;-65
2022/03/20 11:51:54;;;;;;;3.95;2.33;;;22.30;42.20;;;;;;4995319;28;20498;-65
2022/03/20 11:54:21;;;;;;;4.47;2.67;;;22.30;42.10;;;;;;4991972;28;20494;-65
2022/03/20 11:56:48;;;;;;;3.90;2.58;;;22.30;42.10;;;;;;4996018;28;20525;-65
2022/03/20 11:59:48;;;;;;;3.33;2.50;;;22.30;42.10;;;;;;4995512;28;20053;-64
2022/03/20 12:02:16;;;;;;;3.30;2.42;;;22.30;42.10;;;;;;4995386;28;20034;-64
2022/03/20 12:05:10;;;;;;;3.22;2.42;;;22.30;42.00;;;;;;4998559;28;20022;-63
2022/03/20 12:07:49;;;;;;;3.80;2.50;;;22.30;41.90;;;;;;4996063;28;20096;-63
2022/03/20 12:10:52;;;;;;;3.20;2.33;;;22.30;41.90;;;;;;4997015;28;20034;-63
2022/03/20 12:13:28;;;;;;;3.28;2.25;;;22.40;41.90;;;;;;4995901;28;20037;-67
2022/03/20 12:15:55;;;;;;;4.78;2.50;;;22.40;41.90;;;;;;4995473;28;20033;-65
2022/03/20 12:18:20;;;;;;;3.10;2.33;;;22.40;41.90;;;;;;4999958;28;20394;-64
2022/03/20 12:20:51;;;;;;;3.58;2.38;;;22.40;41.80;;;;;;4996916;28;20037;-64
2022/03/20 12:23:43;;;;;;;3.75;2.47;;;22.40;41.80;;;;;;4991799;28;20049;-67
2022/03/20 12:26:23;;;;;;;3.00;2.40;;;22.40;41.80;;;;;;4994006;28;20804;-65
2022/03/20 12:28:48;;;;;;;4.75;3.10;;;22.40;41.70;;;;;;4992059;28;20044;-65
2022/03/20 12:31:26;;;;;;;3.97;2.60;;;22.40;41.70;;;;;;4989467;28;20045;-63
2022/03/20 12:34:17;;;;;;;4.47;2.67;;;22.40;41.70;;;;;;4989578;28;20068;-67
2022/03/20 12:36:42;;;;;;;3.58;2.58;;;22.40;41.70;;;;;;4988061;28;20136;-67
2022/03/20 12:39:10;;;;;;;4.18;2.50;;;22.40;41.60;;;;;;4990152;28;20128;-66
2022/03/20 12:41:37;;;;;;;4.30;2.60;;;22.40;41.60;;;;;;4991285;28;20042;-67
2022/03/20 12:44:07;;;;;;;4.78;3.42;;;22.40;41.60;;;;;;4992337;28;20048;-64
2022/03/20 12:46:37;;;;;;;4.00;2.80;;;22.40;41.60;;;;;;4991459;28;20041;-65
2022/03/20 12:49:03;;;;;;;3.20;2.53;;;22.40;41.70;;;;;;4992483;28;20121;-68
2022/03/20 12:51:36;;;;;;;3.53;2.70;;;22.40;41.60;;;;;;4987333;28;20041;-67
2022/03/20 12:54:20;;;;;;;5.60;2.95;;;22.50;41.60;;;;;;4989325;28;20088;-67
2022/03/20 12:56:53;;;;;;;4.32;2.60;;;22.50;41.60;;;;;;4994428;28;20021;-67
2022/03/20 12:59:20;;;;;;;3.90;2.38;;;22.40;41.50;;;;;;4991234;28;20095;-65
2022/03/20 13:01:46;;;;;;;3.22;2.50;;;22.40;41.40;;;;;;4995090;28;20814;-65
2022/03/20 13:04:19;;;;;;;4.22;2.53;;;22.40;41.30;;;;;;4991535;28;20068;-65
2022/03/20 13:06:46;;;;;;;4.05;2.55;;;22.40;41.30;;;;;;4994912;28;20058;-65
2022/03/20 13:09:13;;;;;;;3.33;2.33;;;22.40;41.20;;;;;;4995396;28;20409;-64
2022/03/20 13:11:51;;;;;;;4.38;2.72;;;22.50;41.20;;;;;;4994310;28;20032;-67
2022/03/20 13:14:17;;;;;;;5.03;2.67;;;22.50;41.20;;;;;;4991282;28;20038;-65
2022/03/20 13:16:56;;;;;;;3.47;2.60;;;22.50;41.10;;;;;;4994385;28;20026;-68
2022/03/20 13:19:29;;;;;;;4.55;2.40;;;22.40;41.00;;;;;;4991941;28;20532;-65
2022/03/20 13:22:05;;;;;;;3.80;2.60;;;22.50;41.00;;;;;;4985063;28;20141;-67
2022/03/20 13:24:33;;;;;;;3.67;2.38;;;22.50;41.00;;;;;;4993877;28;20041;-65